createdAt,value
2023-01-09T00:01:49.498Z,9.06
2023-01-09T00:04:18.229Z,9.09
2023-01-09T00:06:54.569Z,9.11
2023-01-09T00:09:24.306Z,9.10
2023-01-09T00:11:55.060Z,9.09
2023-01-09T00:14:25.036Z,9.07
2023-01-09T00:16:56.011Z,9.11
2023-01-09T00:19:24.319Z,9.17
2023-01-09T00:21:53.019Z,9.20
2023-01-09T00:24:21.610Z,9.16
2023-01-09T00:26:50.943Z,9.16
2023-01-09T00:29:19.347Z,9.26
2023-01-09T00:31:47.720Z,9.26
2023-01-09T00:34:16.688Z,9.22
2023-01-09T00:36:44.964Z,9.22
2023-01-09T00:39:13.148Z,9.28
2023-01-09T00:41:46.584Z,9.29
2023-01-09T00:44:20.517Z,9.21
2023-01-09T00:46:53.192Z,9.19
2023-01-09T00:49:23.411Z,9.27
2023-01-09T00:51:54.462Z,9.32
2023-01-09T00:54:23.943Z,9.28
2023-01-09T00:56:53.253Z,9.24
2023-01-09T00:59:21.983Z,9.22
2023-01-09T01:01:50.523Z,9.20
2023-01-09T01:04:54.298Z,9.19
2023-01-09T01:07:41.667Z,9.04
2023-01-09T01:10:17.356Z,9.03
2023-01-09T01:12:47.133Z,9.05
2023-01-09T01:15:16.165Z,9.06
2023-01-09T01:17:45.059Z,9.03
2023-01-09T01:20:16.804Z,9.00
2023-01-09T01:22:45.525Z,8.99
2023-01-09T01:25:18.474Z,9.00
2023-01-09T01:27:50.093Z,8.98
2023-01-09T01:30:18.959Z,9.00
2023-01-09T01:32:47.061Z,8.96
2023-01-09T01:35:15.661Z,8.95
2023-01-09T01:37:43.985Z,8.97
2023-01-09T01:40:12.687Z,8.94
2023-01-09T01:42:49.541Z,8.93
2023-01-09T01:45:20.910Z,8.86
2023-01-09T01:47:49.144Z,8.88
2023-01-09T01:50:40.774Z,8.93
2023-01-09T01:53:21.420Z,8.86
2023-01-09T01:56:15.413Z,8.88
2023-01-09T01:58:52.078Z,8.84
2023-01-09T02:01:22.891Z,8.85
2023-01-09T02:03:54.612Z,8.89
2023-01-09T02:06:23.349Z,8.93
2023-01-09T02:08:52.005Z,8.97
2023-01-09T02:11:21.303Z,9.05
2023-01-09T02:13:50.098Z,9.03
2023-01-09T02:16:27.761Z,8.99
2023-01-09T02:19:34.721Z,8.98
2023-01-09T02:22:26.098Z,8.87
2023-01-09T02:25:33.032Z,8.77
2023-01-09T02:28:20.135Z,8.69
2023-01-09T02:31:11.161Z,8.69
2023-01-09T02:34:00.775Z,8.72
2023-01-09T02:36:44.557Z,8.67
2023-01-09T02:39:24.173Z,8.69
2023-01-09T02:42:05.700Z,8.73
2023-01-09T02:44:37.119Z,8.80
2023-01-09T02:47:27.761Z,8.88
2023-01-09T02:50:02.127Z,8.83
2023-01-09T02:53:02.162Z,8.87
2023-01-09T02:55:57.332Z,8.83
2023-01-09T02:59:24.157Z,8.81
2023-01-09T03:02:11.089Z,8.69
2023-01-09T03:05:17.179Z,8.75
2023-01-09T03:08:08.067Z,8.76
2023-01-09T03:10:47.085Z,8.76
2023-01-09T03:13:19.696Z,8.78
2023-01-09T03:15:51.401Z,8.84
2023-01-09T03:18:25.518Z,8.91
2023-01-09T03:20:55.661Z,8.93
2023-01-09T03:23:24.119Z,8.96
2023-01-09T03:25:52.497Z,8.99
2023-01-09T03:28:28.358Z,9.08
2023-01-09T03:31:00.551Z,9.10
2023-01-09T03:33:29.952Z,9.07
2023-01-09T03:35:59.319Z,9.07
2023-01-09T03:38:27.557Z,9.11
2023-01-09T03:40:56.329Z,9.15
2023-01-09T03:43:25.536Z,9.17
2023-01-09T03:45:53.990Z,9.11
2023-01-09T03:48:22.699Z,9.07
2023-01-09T03:50:52.955Z,9.09
2023-01-09T03:53:23.733Z,9.11
2023-01-09T03:55:55.064Z,9.10
2023-01-09T03:58:27.559Z,9.08
2023-01-09T04:01:01.975Z,9.04
2023-01-09T04:03:30.843Z,9.01
2023-01-09T04:05:59.481Z,9.07
2023-01-09T04:08:27.897Z,9.10
2023-01-09T04:10:56.861Z,9.12
2023-01-09T04:13:25.636Z,9.13
2023-01-09T04:15:54.518Z,9.15
2023-01-09T04:18:22.722Z,9.17
2023-01-09T04:20:50.949Z,9.21
2023-01-09T04:23:19.262Z,9.19
2023-01-09T04:25:47.942Z,9.18
2023-01-09T04:28:16.769Z,9.19
2023-01-09T04:30:45.403Z,9.20
2023-01-09T04:33:13.785Z,9.27
2023-01-09T04:35:42.525Z,9.27
2023-01-09T04:38:10.880Z,9.23
2023-01-09T04:40:39.590Z,9.19
2023-01-09T04:43:07.980Z,9.24
2023-01-09T04:45:36.873Z,9.27
2023-01-09T04:48:06.101Z,9.22
2023-01-09T04:50:34.336Z,9.18
2023-01-09T04:53:03.667Z,9.18
2023-01-09T04:55:32.255Z,9.21
2023-01-09T04:58:01.185Z,9.22
2023-01-09T05:00:29.531Z,9.17
2023-01-09T05:02:58.489Z,9.14
2023-01-09T05:05:26.855Z,9.15
2023-01-09T05:07:55.080Z,9.15
2023-01-09T05:10:23.462Z,9.13
2023-01-09T05:12:53.685Z,9.09
2023-01-09T05:15:22.342Z,9.03
2023-01-09T05:17:50.592Z,9.01
2023-01-09T05:20:19.026Z,9.03
2023-01-09T05:22:47.399Z,9.05
2023-01-09T05:25:15.649Z,9.04
2023-01-09T05:27:46.625Z,8.98
2023-01-09T05:30:17.985Z,8.92
2023-01-09T05:32:46.670Z,8.88
2023-01-09T05:35:15.240Z,8.87
2023-01-09T05:37:43.500Z,8.88
2023-01-09T05:40:12.215Z,8.87
2023-01-09T05:42:40.839Z,8.85
2023-01-09T05:45:09.994Z,8.81
2023-01-09T05:47:39.305Z,8.79
2023-01-09T05:50:08.113Z,8.80
2023-01-09T05:52:36.324Z,8.79
2023-01-09T05:55:06.660Z,8.82
2023-01-09T05:57:34.996Z,8.78
2023-01-09T06:00:04.048Z,8.73
2023-01-09T06:02:35.576Z,8.72
2023-01-09T06:05:04.116Z,8.72
2023-01-09T06:07:35.041Z,8.78
2023-01-09T06:10:03.736Z,8.84
2023-01-09T06:12:31.898Z,8.86
2023-01-09T06:15:00.336Z,8.86
2023-01-09T06:17:28.855Z,8.86
2023-01-09T06:19:57.768Z,8.88
2023-01-09T06:22:26.172Z,8.88
2023-01-09T06:24:54.454Z,8.88
2023-01-09T06:27:22.933Z,8.87
2023-01-09T06:29:53.470Z,8.81
2023-01-09T06:32:22.260Z,8.87
2023-01-09T06:34:50.485Z,8.90
2023-01-09T06:37:19.534Z,8.94
2023-01-09T06:39:48.595Z,8.90
2023-01-09T06:42:17.144Z,8.90
2023-01-09T06:44:45.451Z,8.97
2023-01-09T06:47:13.804Z,9.00
2023-01-09T06:49:42.224Z,8.96
2023-01-09T06:52:10.593Z,8.90
2023-01-09T06:54:38.970Z,8.88
2023-01-09T06:57:07.344Z,8.94
2023-01-09T06:59:35.601Z,8.93
2023-01-09T07:02:07.379Z,8.88
2023-01-09T07:04:35.691Z,8.83
2023-01-09T07:07:03.907Z,8.84
2023-01-09T07:09:32.049Z,8.85
2023-01-09T07:12:00.586Z,8.77
2023-01-09T07:14:29.183Z,8.71
2023-01-09T07:16:58.612Z,8.69
2023-01-09T07:19:27.407Z,8.70
2023-01-09T07:21:55.615Z,8.67
2023-01-09T07:24:24.133Z,8.60
2023-01-09T07:26:52.596Z,8.53
